sensor_id;sensor_type;location;lat;lon;timestamp;P1;durP1;ratioP1;P2;durP2;ratioP2
4323;SDS011;2175;51.018;6.994;2023-03-31T00:01:04;10.93;;;2.90;;
4323;SDS011;2175;51.018;6.994;2023-03-31T00:03:30;6.90;;;2.20;;
4323;SDS011;2175;51.018;6.994;2023-03-31T00:05:58;7.03;;;2.37;;
4323;SDS011;2175;51.018;6.994;2023-03-31T00:08:28;7.47;;;2.40;;
4323;SDS011;2175;51.018;6.994;2023-03-31T00:10:59;10.00;;;3.27;;
4323;SDS011;2175;51.018;6.994;2023-03-31T00:13:26;6.40;;;2.20;;
4323;SDS011;2175;51.018;6.994;2023-03-31T00:15:57;8.00;;;2.37;;
4323;SDS011;2175;51.018;6.994;2023-03-31T00:18:24;8.10;;;2.67;;
4323;SDS011;2175;51.018;6.994;2023-03-31T00:20:50;4.60;;;1.90;;
4323;SDS011;2175;51.018;6.994;2023-03-31T00:23:17;7.50;;;2.40;;
4323;SDS011;2175;51.018;6.994;2023-03-31T00:25:43;6.57;;;2.43;;
4323;SDS011;2175;51.018;6.994;2023-03-31T00:28:08;8.40;;;2.57;;
4323;SDS011;2175;51.018;6.994;2023-03-31T00:30:34;7.03;;;2.30;;
4323;SDS011;2175;51.018;6.994;2023-03-31T00:33:00;5.70;;;1.90;;
4323;SDS011;2175;51.018;6.994;2023-03-31T00:35:26;9.80;;;2.83;;
4323;SDS011;2175;51.018;6.994;2023-03-31T00:37:52;9.90;;;2.90;;
4323;SDS011;2175;51.018;6.994;2023-03-31T00:40:18;11.77;;;2.63;;
4323;SDS011;2175;51.018;6.994;2023-03-31T00:42:44;10.20;;;2.30;;
4323;SDS011;2175;51.018;6.994;2023-03-31T00:47:39;5.67;;;2.40;;
4323;SDS011;2175;51.018;6.994;2023-03-31T00:50:21;5.83;;;2.20;;
4323;SDS011;2175;51.018;6.994;2023-03-31T00:53:05;7.93;;;2.30;;
4323;SDS011;2175;51.018;6.994;2023-03-31T00:55:38;11.63;;;2.60;;
4323;SDS011;2175;51.018;6.994;2023-03-31T00:58:09;8.40;;;2.57;;
4323;SDS011;2175;51.018;6.994;2023-03-31T01:00:38;8.03;;;2.07;;
4323;SDS011;2175;51.018;6.994;2023-03-31T01:03:05;9.20;;;2.07;;
4323;SDS011;2175;51.018;6.994;2023-03-31T01:05:43;14.40;;;2.80;;
4323;SDS011;2175;51.018;6.994;2023-03-31T01:08:12;11.47;;;2.30;;
4323;SDS011;2175;51.018;6.994;2023-03-31T01:10:40;8.43;;;2.30;;
4323;SDS011;2175;51.018;6.994;2023-03-31T01:13:10;8.20;;;2.40;;
4323;SDS011;2175;51.018;6.994;2023-03-31T01:15:38;8.20;;;2.07;;
4323;SDS011;2175;51.018;6.994;2023-03-31T01:18:06;5.07;;;1.80;;
4323;SDS011;2175;51.018;6.994;2023-03-31T01:32:41;10.13;;;2.50;;
4323;SDS011;2175;51.018;6.994;2023-03-31T01:40:58;6.60;;;2.20;;
4323;SDS011;2175;51.018;6.994;2023-03-31T01:43:43;9.00;;;2.53;;
4323;SDS011;2175;51.018;6.994;2023-03-31T01:46:21;10.43;;;2.43;;
4323;SDS011;2175;51.018;6.994;2023-03-31T01:52:17;8.30;;;2.30;;
4323;SDS011;2175;51.018;6.994;2023-03-31T01:59:54;5.63;;;2.07;;
4323;SDS011;2175;51.018;6.994;2023-03-31T02:02:36;7.53;;;1.90;;
4323;SDS011;2175;51.018;6.994;2023-03-31T02:05:06;8.53;;;2.20;;
4323;SDS011;2175;51.018;6.994;2023-03-31T02:07:38;9.00;;;2.40;;
4323;SDS011;2175;51.018;6.994;2023-03-31T02:10:08;8.20;;;2.33;;
4323;SDS011;2175;51.018;6.994;2023-03-31T02:12:35;6.43;;;2.10;;
4323;SDS011;2175;51.018;6.994;2023-03-31T02:15:05;7.60;;;2.27;;
4323;SDS011;2175;51.018;6.994;2023-03-31T02:17:34;7.77;;;2.30;;
4323;SDS011;2175;51.018;6.994;2023-03-31T02:20:04;10.20;;;2.30;;
4323;SDS011;2175;51.018;6.994;2023-03-31T02:22:39;8.03;;;2.53;;
4323;SDS011;2175;51.018;6.994;2023-03-31T02:25:08;8.87;;;2.70;;
4323;SDS011;2175;51.018;6.994;2023-03-31T02:27:47;7.67;;;2.33;;
4323;SDS011;2175;51.018;6.994;2023-03-31T02:30:17;7.63;;;2.47;;
4323;SDS011;2175;51.018;6.994;2023-03-31T02:32:43;16.13;;;3.00;;
4323;SDS011;2175;51.018;6.994;2023-03-31T02:35:18;7.90;;;2.70;;
4323;SDS011;2175;51.018;6.994;2023-03-31T02:37:45;12.00;;;3.50;;
4323;SDS011;2175;51.018;6.994;2023-03-31T02:40:15;8.07;;;2.90;;
4323;SDS011;2175;51.018;6.994;2023-03-31T02:42:43;9.33;;;2.70;;
4323;SDS011;2175;51.018;6.994;2023-03-31T02:48:08;8.20;;;3.33;;
4323;SDS011;2175;51.018;6.994;2023-03-31T02:53:51;6.53;;;2.47;;
4323;SDS011;2175;51.018;6.994;2023-03-31T02:56:27;7.23;;;2.30;;
4323;SDS011;2175;51.018;6.994;2023-03-31T03:04:29;16.20;;;3.00;;
4323;SDS011;2175;51.018;6.994;2023-03-31T03:07:18;13.07;;;2.70;;
4323;SDS011;2175;51.018;6.994;2023-03-31T03:10:00;8.60;;;2.43;;
4323;SDS011;2175;51.018;6.994;2023-03-31T03:12:39;8.80;;;2.77;;
4323;SDS011;2175;51.018;6.994;2023-03-31T03:15:16;11.20;;;2.67;;
4323;SDS011;2175;51.018;6.994;2023-03-31T03:17:49;15.30;;;3.50;;
4323;SDS011;2175;51.018;6.994;2023-03-31T03:20:17;12.67;;;2.60;;
4323;SDS011;2175;51.018;6.994;2023-03-31T03:22:44;12.47;;;2.90;;
4323;SDS011;2175;51.018;6.994;2023-03-31T03:25:10;8.07;;;2.60;;
4323;SDS011;2175;51.018;6.994;2023-03-31T03:27:37;12.60;;;2.97;;
4323;SDS011;2175;51.018;6.994;2023-03-31T03:30:04;10.87;;;2.77;;
4323;SDS011;2175;51.018;6.994;2023-03-31T03:32:32;8.97;;;3.17;;
4323;SDS011;2175;51.018;6.994;2023-03-31T03:34:58;17.20;;;3.70;;
4323;SDS011;2175;51.018;6.994;2023-03-31T03:37:24;10.53;;;2.50;;
4323;SDS011;2175;51.018;6.994;2023-03-31T03:39:50;12.17;;;3.20;;
4323;SDS011;2175;51.018;6.994;2023-03-31T03:42:16;9.77;;;2.93;;
4323;SDS011;2175;51.018;6.994;2023-03-31T03:44:41;13.43;;;3.70;;
4323;SDS011;2175;51.018;6.994;2023-03-31T03:47:07;11.13;;;3.50;;
4323;SDS011;2175;51.018;6.994;2023-03-31T03:49:32;13.00;;;3.00;;
4323;SDS011;2175;51.018;6.994;2023-03-31T03:51:58;14.87;;;3.30;;
4323;SDS011;2175;51.018;6.994;2023-03-31T03:54:23;10.30;;;2.90;;
4323;SDS011;2175;51.018;6.994;2023-03-31T03:56:49;15.70;;;3.77;;
4323;SDS011;2175;51.018;6.994;2023-03-31T03:59:15;16.87;;;3.43;;
4323;SDS011;2175;51.018;6.994;2023-03-31T04:01:40;14.33;;;3.70;;
4323;SDS011;2175;51.018;6.994;2023-03-31T04:04:06;16.40;;;3.40;;
4323;SDS011;2175;51.018;6.994;2023-03-31T04:06:31;15.60;;;3.07;;
4323;SDS011;2175;51.018;6.994;2023-03-31T04:08:57;16.20;;;3.03;;
4323;SDS011;2175;51.018;6.994;2023-03-31T04:11:23;13.50;;;3.47;;
4323;SDS011;2175;51.018;6.994;2023-03-31T04:13:48;13.97;;;3.73;;
4323;SDS011;2175;51.018;6.994;2023-03-31T04:16:14;15.60;;;2.93;;
4323;SDS011;2175;51.018;6.994;2023-03-31T04:18:40;12.10;;;3.20;;
4323;SDS011;2175;51.018;6.994;2023-03-31T04:21:09;14.40;;;3.23;;
4323;SDS011;2175;51.018;6.994;2023-03-31T04:23:47;13.77;;;3.40;;
4323;SDS011;2175;51.018;6.994;2023-03-31T04:26:23;16.60;;;3.20;;
4323;SDS011;2175;51.018;6.994;2023-03-31T04:29:06;14.93;;;3.67;;
4323;SDS011;2175;51.018;6.994;2023-03-31T04:31:33;8.93;;;3.50;;
4323;SDS011;2175;51.018;6.994;2023-03-31T04:34:02;10.10;;;3.27;;
4323;SDS011;2175;51.018;6.994;2023-03-31T04:36:31;16.17;;;2.97;;
4323;SDS011;2175;51.018;6.994;2023-03-31T04:38:58;15.00;;;3.80;;
4323;SDS011;2175;51.018;6.994;2023-03-31T04:41:25;10.33;;;3.17;;
4323;SDS011;2175;51.018;6.994;2023-03-31T04:43:54;12.43;;;3.50;;
4323;SDS011;2175;51.018;6.994;2023-03-31T04:46:20;9.67;;;2.83;;
4323;SDS011;2175;51.018;6.994;2023-03-31T04:48:45;10.30;;;2.77;;
4323;SDS011;2175;51.018;6.994;2023-03-31T04:51:11;13.90;;;3.30;;
4323;SDS011;2175;51.018;6.994;2023-03-31T04:53:39;12.40;;;3.17;;
4323;SDS011;2175;51.018;6.994;2023-03-31T04:56:05;10.90;;;3.10;;
4323;SDS011;2175;51.018;6.994;2023-03-31T04:58:31;26.43;;;3.47;;
4323;SDS011;2175;51.018;6.994;2023-03-31T05:00:57;7.63;;;2.77;;
4323;SDS011;2175;51.018;6.994;2023-03-31T05:03:23;10.10;;;3.00;;
4323;SDS011;2175;51.018;6.994;2023-03-31T05:05:48;12.90;;;2.70;;
4323;SDS011;2175;51.018;6.994;2023-03-31T05:08:14;10.50;;;3.17;;
4323;SDS011;2175;51.018;6.994;2023-03-31T05:10:39;9.20;;;2.67;;
4323;SDS011;2175;51.018;6.994;2023-03-31T05:13:05;11.27;;;3.73;;
4323;SDS011;2175;51.018;6.994;2023-03-31T05:15:36;7.20;;;3.00;;
4323;SDS011;2175;51.018;6.994;2023-03-31T05:18:02;10.37;;;2.73;;
4323;SDS011;2175;51.018;6.994;2023-03-31T05:20:28;13.80;;;2.90;;
4323;SDS011;2175;51.018;6.994;2023-03-31T05:22:53;14.40;;;3.07;;
4323;SDS011;2175;51.018;6.994;2023-03-31T05:25:19;13.27;;;2.70;;
4323;SDS011;2175;51.018;6.994;2023-03-31T05:27:45;13.77;;;3.10;;
4323;SDS011;2175;51.018;6.994;2023-03-31T05:30:11;12.53;;;2.80;;
4323;SDS011;2175;51.018;6.994;2023-03-31T05:32:41;7.07;;;2.67;;
4323;SDS011;2175;51.018;6.994;2023-03-31T05:35:07;9.70;;;2.53;;
4323;SDS011;2175;51.018;6.994;2023-03-31T05:37:34;8.53;;;2.37;;
4323;SDS011;2175;51.018;6.994;2023-03-31T05:39:59;9.33;;;2.70;;
4323;SDS011;2175;51.018;6.994;2023-03-31T05:42:25;4.90;;;2.17;;
4323;SDS011;2175;51.018;6.994;2023-03-31T05:44:50;7.43;;;2.40;;
4323;SDS011;2175;51.018;6.994;2023-03-31T05:47:16;7.33;;;2.43;;
4323;SDS011;2175;51.018;6.994;2023-03-31T05:49:42;11.77;;;2.30;;
4323;SDS011;2175;51.018;6.994;2023-03-31T05:52:08;4.73;;;2.50;;
4323;SDS011;2175;51.018;6.994;2023-03-31T05:54:34;11.80;;;2.50;;
4323;SDS011;2175;51.018;6.994;2023-03-31T05:57:00;6.87;;;2.20;;
4323;SDS011;2175;51.018;6.994;2023-03-31T05:59:25;7.10;;;2.20;;
4323;SDS011;2175;51.018;6.994;2023-03-31T06:01:51;5.93;;;2.20;;
4323;SDS011;2175;51.018;6.994;2023-03-31T06:04:17;4.23;;;2.07;;
4323;SDS011;2175;51.018;6.994;2023-03-31T06:06:43;6.90;;;2.10;;
4323;SDS011;2175;51.018;6.994;2023-03-31T06:09:10;11.67;;;3.43;;
4323;SDS011;2175;51.018;6.994;2023-03-31T06:11:36;6.57;;;2.17;;
4323;SDS011;2175;51.018;6.994;2023-03-31T06:14:02;8.33;;;2.40;;
4323;SDS011;2175;51.018;6.994;2023-03-31T06:16:28;4.10;;;2.03;;
4323;SDS011;2175;51.018;6.994;2023-03-31T06:18:53;5.20;;;2.00;;
4323;SDS011;2175;51.018;6.994;2023-03-31T06:21:19;6.60;;;1.97;;
4323;SDS011;2175;51.018;6.994;2023-03-31T06:23:45;6.70;;;1.70;;
4323;SDS011;2175;51.018;6.994;2023-03-31T06:26:13;9.00;;;2.00;;
4323;SDS011;2175;51.018;6.994;2023-03-31T06:28:40;6.57;;;1.87;;
4323;SDS011;2175;51.018;6.994;2023-03-31T06:31:07;6.73;;;1.67;;
4323;SDS011;2175;51.018;6.994;2023-03-31T06:33:36;4.90;;;1.90;;
4323;SDS011;2175;51.018;6.994;2023-03-31T06:36:02;3.73;;;1.80;;
4323;SDS011;2175;51.018;6.994;2023-03-31T06:38:29;5.53;;;1.70;;
4323;SDS011;2175;51.018;6.994;2023-03-31T06:40:55;5.03;;;1.83;;
4323;SDS011;2175;51.018;6.994;2023-03-31T06:43:21;3.73;;;1.40;;
4323;SDS011;2175;51.018;6.994;2023-03-31T06:45:47;10.33;;;1.53;;
4323;SDS011;2175;51.018;6.994;2023-03-31T06:48:12;3.33;;;1.60;;
4323;SDS011;2175;51.018;6.994;2023-03-31T06:50:39;1.90;;;1.23;;
4323;SDS011;2175;51.018;6.994;2023-03-31T06:53:05;5.03;;;1.60;;
4323;SDS011;2175;51.018;6.994;2023-03-31T06:55:34;5.80;;;1.53;;
4323;SDS011;2175;51.018;6.994;2023-03-31T06:58:01;4.70;;;1.37;;
4323;SDS011;2175;51.018;6.994;2023-03-31T07:00:27;5.90;;;1.37;;
4323;SDS011;2175;51.018;6.994;2023-03-31T07:02:53;4.03;;;1.20;;
4323;SDS011;2175;51.018;6.994;2023-03-31T07:05:19;3.27;;;1.50;;
4323;SDS011;2175;51.018;6.994;2023-03-31T07:07:50;5.97;;;1.33;;
4323;SDS011;2175;51.018;6.994;2023-03-31T07:10:20;4.20;;;1.30;;
4323;SDS011;2175;51.018;6.994;2023-03-31T07:12:47;1.50;;;1.10;;
4323;SDS011;2175;51.018;6.994;2023-03-31T07:15:12;2.13;;;1.03;;
4323;SDS011;2175;51.018;6.994;2023-03-31T07:17:38;3.50;;;1.20;;
4323;SDS011;2175;51.018;6.994;2023-03-31T07:20:11;2.83;;;1.70;;
4323;SDS011;2175;51.018;6.994;2023-03-31T07:22:39;4.53;;;1.57;;
4323;SDS011;2175;51.018;6.994;2023-03-31T07:25:05;6.77;;;1.60;;
4323;SDS011;2175;51.018;6.994;2023-03-31T07:27:35;2.20;;;1.23;;
4323;SDS011;2175;51.018;6.994;2023-03-31T07:30:03;4.00;;;1.47;;
4323;SDS011;2175;51.018;6.994;2023-03-31T07:32:29;5.13;;;1.73;;
4323;SDS011;2175;51.018;6.994;2023-03-31T07:34:55;3.93;;;1.40;;
4323;SDS011;2175;51.018;6.994;2023-03-31T07:37:21;2.37;;;1.30;;
4323;SDS011;2175;51.018;6.994;2023-03-31T07:39:46;2.17;;;1.40;;
4323;SDS011;2175;51.018;6.994;2023-03-31T07:42:12;3.50;;;1.67;;
4323;SDS011;2175;51.018;6.994;2023-03-31T07:44:37;3.20;;;1.37;;
4323;SDS011;2175;51.018;6.994;2023-03-31T07:47:03;3.97;;;1.53;;
4323;SDS011;2175;51.018;6.994;2023-03-31T07:49:30;1.70;;;1.10;;
4323;SDS011;2175;51.018;6.994;2023-03-31T07:51:57;4.37;;;1.63;;
4323;SDS011;2175;51.018;6.994;2023-03-31T07:54:23;2.30;;;1.27;;
4323;SDS011;2175;51.018;6.994;2023-03-31T07:56:48;3.20;;;1.60;;
4323;SDS011;2175;51.018;6.994;2023-03-31T07:59:14;3.40;;;1.53;;
4323;SDS011;2175;51.018;6.994;2023-03-31T08:01:40;2.93;;;1.33;;
4323;SDS011;2175;51.018;6.994;2023-03-31T08:04:06;6.30;;;1.40;;
4323;SDS011;2175;51.018;6.994;2023-03-31T08:06:31;2.57;;;1.30;;
4323;SDS011;2175;51.018;6.994;2023-03-31T08:08:57;4.03;;;1.43;;
4323;SDS011;2175;51.018;6.994;2023-03-31T08:11:23;6.53;;;1.70;;
4323;SDS011;2175;51.018;6.994;2023-03-31T08:13:50;3.33;;;1.40;;
4323;SDS011;2175;51.018;6.994;2023-03-31T08:16:16;3.20;;;1.40;;
4323;SDS011;2175;51.018;6.994;2023-03-31T08:18:41;4.10;;;1.60;;
4323;SDS011;2175;51.018;6.994;2023-03-31T08:21:07;5.63;;;1.70;;
4323;SDS011;2175;51.018;6.994;2023-03-31T08:23:36;2.93;;;1.33;;
4323;SDS011;2175;51.018;6.994;2023-03-31T08:28:43;4.27;;;1.37;;
4323;SDS011;2175;51.018;6.994;2023-03-31T08:31:10;5.33;;;1.57;;
4323;SDS011;2175;51.018;6.994;2023-03-31T08:33:36;6.13;;;1.73;;
4323;SDS011;2175;51.018;6.994;2023-03-31T08:36:03;7.63;;;1.90;;
4323;SDS011;2175;51.018;6.994;2023-03-31T08:38:31;7.90;;;2.40;;
4323;SDS011;2175;51.018;6.994;2023-03-31T08:41:00;3.40;;;1.53;;
4323;SDS011;2175;51.018;6.994;2023-03-31T08:43:29;5.20;;;1.93;;
4323;SDS011;2175;51.018;6.994;2023-03-31T08:45:59;12.30;;;1.97;;
4323;SDS011;2175;51.018;6.994;2023-03-31T08:51:06;5.67;;;2.27;;
4323;SDS011;2175;51.018;6.994;2023-03-31T08:53:42;7.70;;;1.90;;
4323;SDS011;2175;51.018;6.994;2023-03-31T08:56:14;9.03;;;2.40;;
4323;SDS011;2175;51.018;6.994;2023-03-31T08:58:45;9.87;;;3.03;;
4323;SDS011;2175;51.018;6.994;2023-03-31T09:04:06;9.80;;;2.67;;
4323;SDS011;2175;51.018;6.994;2023-03-31T09:07:01;8.20;;;3.00;;
4323;SDS011;2175;51.018;6.994;2023-03-31T09:12:32;9.80;;;2.50;;
4323;SDS011;2175;51.018;6.994;2023-03-31T09:17:56;9.03;;;2.30;;
4323;SDS011;2175;51.018;6.994;2023-03-31T09:20:29;7.13;;;2.70;;
4323;SDS011;2175;51.018;6.994;2023-03-31T09:25:48;8.90;;;2.73;;
4323;SDS011;2175;51.018;6.994;2023-03-31T09:28:19;9.30;;;2.93;;
4323;SDS011;2175;51.018;6.994;2023-03-31T09:30:46;8.20;;;2.50;;
4323;SDS011;2175;51.018;6.994;2023-03-31T09:35:52;8.30;;;2.60;;
4323;SDS011;2175;51.018;6.994;2023-03-31T09:38:18;12.57;;;3.47;;
4323;SDS011;2175;51.018;6.994;2023-03-31T09:40:43;10.93;;;3.10;;
4323;SDS011;2175;51.018;6.994;2023-03-31T09:43:26;19.83;;;3.40;;
4323;SDS011;2175;51.018;6.994;2023-03-31T09:45:54;9.80;;;2.93;;
4323;SDS011;2175;51.018;6.994;2023-03-31T09:48:28;12.10;;;3.00;;
4323;SDS011;2175;51.018;6.994;2023-03-31T09:51:02;10.57;;;2.50;;
4323;SDS011;2175;51.018;6.994;2023-03-31T09:53:39;9.60;;;2.87;;
4323;SDS011;2175;51.018;6.994;2023-03-31T09:56:10;9.10;;;3.00;;
4323;SDS011;2175;51.018;6.994;2023-03-31T09:58:42;11.70;;;2.93;;
4323;SDS011;2175;51.018;6.994;2023-03-31T10:01:10;11.43;;;2.90;;
4323;SDS011;2175;51.018;6.994;2023-03-31T10:03:43;9.40;;;2.80;;
4323;SDS011;2175;51.018;6.994;2023-03-31T10:06:16;10.97;;;3.10;;
4323;SDS011;2175;51.018;6.994;2023-03-31T10:08:46;15.00;;;3.20;;
4323;SDS011;2175;51.018;6.994;2023-03-31T10:11:19;8.00;;;2.93;;
4323;SDS011;2175;51.018;6.994;2023-03-31T10:14:31;10.60;;;3.00;;
4323;SDS011;2175;51.018;6.994;2023-03-31T10:16:55;13.40;;;3.30;;
4323;SDS011;2175;51.018;6.994;2023-03-31T10:19:28;10.03;;;3.37;;
4323;SDS011;2175;51.018;6.994;2023-03-31T10:24:25;8.40;;;2.80;;
4323;SDS011;2175;51.018;6.994;2023-03-31T10:26:59;10.87;;;3.30;;
4323;SDS011;2175;51.018;6.994;2023-03-31T10:29:29;17.00;;;3.87;;
4323;SDS011;2175;51.018;6.994;2023-03-31T10:32:17;9.30;;;2.90;;
4323;SDS011;2175;51.018;6.994;2023-03-31T10:34:48;15.43;;;3.97;;
4323;SDS011;2175;51.018;6.994;2023-03-31T10:37:16;12.00;;;4.00;;
4323;SDS011;2175;51.018;6.994;2023-03-31T10:39:46;12.23;;;3.60;;
4323;SDS011;2175;51.018;6.994;2023-03-31T10:42:20;16.13;;;3.73;;
4323;SDS011;2175;51.018;6.994;2023-03-31T10:44:46;10.50;;;3.30;;
4323;SDS011;2175;51.018;6.994;2023-03-31T10:49:38;14.20;;;3.10;;
4323;SDS011;2175;51.018;6.994;2023-03-31T10:52:19;12.00;;;2.90;;
4323;SDS011;2175;51.018;6.994;2023-03-31T10:54:57;11.60;;;3.17;;
4323;SDS011;2175;51.018;6.994;2023-03-31T11:00:17;17.37;;;3.50;;
4323;SDS011;2175;51.018;6.994;2023-03-31T11:05:48;10.37;;;3.13;;
4323;SDS011;2175;51.018;6.994;2023-03-31T11:08:45;9.70;;;3.10;;
4323;SDS011;2175;51.018;6.994;2023-03-31T11:19:45;9.37;;;1.70;;
4323;SDS011;2175;51.018;6.994;2023-03-31T11:30:35;4.50;;;1.77;;
4323;SDS011;2175;51.018;6.994;2023-03-31T11:33:21;4.50;;;2.17;;
4323;SDS011;2175;51.018;6.994;2023-03-31T11:41:38;3.43;;;1.60;;
4323;SDS011;2175;51.018;6.994;2023-03-31T11:44:14;4.83;;;2.17;;
4323;SDS011;2175;51.018;6.994;2023-03-31T11:52:27;7.17;;;1.83;;
4323;SDS011;2175;51.018;6.994;2023-03-31T11:55:01;14.90;;;2.50;;
4323;SDS011;2175;51.018;6.994;2023-03-31T11:59:59;5.97;;;2.07;;
4323;SDS011;2175;51.018;6.994;2023-03-31T12:05:26;9.53;;;2.60;;
4323;SDS011;2175;51.018;6.994;2023-03-31T12:08:00;10.50;;;2.30;;
4323;SDS011;2175;51.018;6.994;2023-03-31T12:10:35;6.90;;;2.50;;
4323;SDS011;2175;51.018;6.994;2023-03-31T12:15:59;19.73;;;2.80;;
4323;SDS011;2175;51.018;6.994;2023-03-31T12:18:48;12.30;;;3.10;;
4323;SDS011;2175;51.018;6.994;2023-03-31T12:21:40;10.67;;;3.43;;
4323;SDS011;2175;51.018;6.994;2023-03-31T12:24:11;15.53;;;3.60;;
4323;SDS011;2175;51.018;6.994;2023-03-31T12:26:52;11.20;;;3.40;;
4323;SDS011;2175;51.018;6.994;2023-03-31T12:29:52;15.90;;;3.17;;
4323;SDS011;2175;51.018;6.994;2023-03-31T12:32:22;18.47;;;3.73;;
4323;SDS011;2175;51.018;6.994;2023-03-31T12:35:00;13.70;;;3.80;;
4323;SDS011;2175;51.018;6.994;2023-03-31T12:37:46;16.80;;;3.90;;
4323;SDS011;2175;51.018;6.994;2023-03-31T12:40:49;16.17;;;3.40;;
4323;SDS011;2175;51.018;6.994;2023-03-31T12:43:32;13.20;;;3.50;;
4323;SDS011;2175;51.018;6.994;2023-03-31T12:57:03;11.83;;;2.80;;
4323;SDS011;2175;51.018;6.994;2023-03-31T12:59:41;10.40;;;3.10;;
4323;SDS011;2175;51.018;6.994;2023-03-31T13:04:43;15.60;;;3.60;;
4323;SDS011;2175;51.018;6.994;2023-03-31T13:09:54;11.57;;;3.00;;
4323;SDS011;2175;51.018;6.994;2023-03-31T13:12:21;9.00;;;2.40;;
4323;SDS011;2175;51.018;6.994;2023-03-31T13:14:51;9.20;;;2.70;;
4323;SDS011;2175;51.018;6.994;2023-03-31T13:17:27;11.20;;;2.20;;
4323;SDS011;2175;51.018;6.994;2023-03-31T13:19:56;7.93;;;2.23;;
4323;SDS011;2175;51.018;6.994;2023-03-31T13:22:42;12.07;;;2.03;;
4323;SDS011;2175;51.018;6.994;2023-03-31T13:27:55;10.80;;;3.00;;
4323;SDS011;2175;51.018;6.994;2023-03-31T13:33:18;12.00;;;2.97;;
4323;SDS011;2175;51.018;6.994;2023-03-31T13:35:49;6.83;;;2.30;;
4323;SDS011;2175;51.018;6.994;2023-03-31T13:38:28;9.57;;;2.33;;
4323;SDS011;2175;51.018;6.994;2023-03-31T13:41:00;7.03;;;2.30;;
4323;SDS011;2175;51.018;6.994;2023-03-31T13:55:27;7.20;;;2.50;;
4323;SDS011;2175;51.018;6.994;2023-03-31T14:01:07;11.80;;;3.07;;
4323;SDS011;2175;51.018;6.994;2023-03-31T14:04:05;9.90;;;2.50;;
4323;SDS011;2175;51.018;6.994;2023-03-31T14:06:52;11.90;;;2.83;;
4323;SDS011;2175;51.018;6.994;2023-03-31T14:09:32;8.20;;;2.50;;
4323;SDS011;2175;51.018;6.994;2023-03-31T14:14:57;11.27;;;2.40;;
4323;SDS011;2175;51.018;6.994;2023-03-31T14:17:25;11.50;;;2.40;;
4323;SDS011;2175;51.018;6.994;2023-03-31T14:28:04;12.73;;;2.20;;
4323;SDS011;2175;51.018;6.994;2023-03-31T14:39:03;5.70;;;1.90;;
4323;SDS011;2175;51.018;6.994;2023-03-31T14:41:33;4.67;;;1.50;;
4323;SDS011;2175;51.018;6.994;2023-03-31T14:44:02;4.10;;;1.60;;
4323;SDS011;2175;51.018;6.994;2023-03-31T14:46:30;6.10;;;2.00;;
4323;SDS011;2175;51.018;6.994;2023-03-31T14:49:05;4.50;;;1.43;;
4323;SDS011;2175;51.018;6.994;2023-03-31T14:51:52;7.20;;;2.30;;
4323;SDS011;2175;51.018;6.994;2023-03-31T14:54:19;5.00;;;1.80;;
4323;SDS011;2175;51.018;6.994;2023-03-31T14:56:49;5.13;;;1.80;;
4323;SDS011;2175;51.018;6.994;2023-03-31T14:59:26;7.97;;;2.50;;
4323;SDS011;2175;51.018;6.994;2023-03-31T15:01:58;4.73;;;1.60;;
4323;SDS011;2175;51.018;6.994;2023-03-31T15:04:27;6.70;;;2.03;;
4323;SDS011;2175;51.018;6.994;2023-03-31T15:06:54;7.73;;;1.83;;
4323;SDS011;2175;51.018;6.994;2023-03-31T15:09:23;7.50;;;2.57;;
4323;SDS011;2175;51.018;6.994;2023-03-31T15:11:58;6.93;;;2.27;;
4323;SDS011;2175;51.018;6.994;2023-03-31T15:14:34;5.87;;;1.77;;
4323;SDS011;2175;51.018;6.994;2023-03-31T15:17:04;5.00;;;2.10;;
4323;SDS011;2175;51.018;6.994;2023-03-31T15:19:31;8.83;;;2.43;;
4323;SDS011;2175;51.018;6.994;2023-03-31T15:22:14;6.87;;;2.07;;
4323;SDS011;2175;51.018;6.994;2023-03-31T15:24:43;8.23;;;2.47;;
4323;SDS011;2175;51.018;6.994;2023-03-31T15:27:12;9.23;;;2.23;;
4323;SDS011;2175;51.018;6.994;2023-03-31T15:30:18;6.40;;;1.63;;
4323;SDS011;2175;51.018;6.994;2023-03-31T15:32:47;10.03;;;2.60;;
4323;SDS011;2175;51.018;6.994;2023-03-31T15:35:26;10.63;;;2.70;;
4323;SDS011;2175;51.018;6.994;2023-03-31T15:37:55;10.50;;;2.57;;
4323;SDS011;2175;51.018;6.994;2023-03-31T15:40:27;6.77;;;2.57;;
4323;SDS011;2175;51.018;6.994;2023-03-31T15:48:03;12.70;;;3.33;;
4323;SDS011;2175;51.018;6.994;2023-03-31T15:50:29;7.90;;;2.40;;
4323;SDS011;2175;51.018;6.994;2023-03-31T15:52:57;15.53;;;3.60;;
4323;SDS011;2175;51.018;6.994;2023-03-31T15:55:25;13.40;;;3.73;;
4323;SDS011;2175;51.018;6.994;2023-03-31T15:57:54;12.10;;;3.30;;
4323;SDS011;2175;51.018;6.994;2023-03-31T16:02:55;11.60;;;3.03;;
4323;SDS011;2175;51.018;6.994;2023-03-31T16:05:39;10.43;;;3.03;;
4323;SDS011;2175;51.018;6.994;2023-03-31T16:08:13;11.93;;;3.07;;
4323;SDS011;2175;51.018;6.994;2023-03-31T16:10:45;9.17;;;3.10;;
4323;SDS011;2175;51.018;6.994;2023-03-31T16:13:15;11.50;;;2.90;;
4323;SDS011;2175;51.018;6.994;2023-03-31T16:15:47;9.27;;;2.40;;
4323;SDS011;2175;51.018;6.994;2023-03-31T16:21:02;6.63;;;2.00;;
4323;SDS011;2175;51.018;6.994;2023-03-31T16:23:33;4.50;;;1.80;;
4323;SDS011;2175;51.018;6.994;2023-03-31T16:26:02;7.57;;;1.90;;
4323;SDS011;2175;51.018;6.994;2023-03-31T16:28:29;7.43;;;1.80;;
4323;SDS011;2175;51.018;6.994;2023-03-31T16:30:58;5.93;;;1.73;;
4323;SDS011;2175;51.018;6.994;2023-03-31T16:33:26;7.30;;;1.60;;
4323;SDS011;2175;51.018;6.994;2023-03-31T16:35:54;5.13;;;1.60;;
4323;SDS011;2175;51.018;6.994;2023-03-31T16:38:23;4.70;;;1.67;;
4323;SDS011;2175;51.018;6.994;2023-03-31T16:40:54;7.13;;;1.67;;
4323;SDS011;2175;51.018;6.994;2023-03-31T16:45:52;6.00;;;1.57;;
4323;SDS011;2175;51.018;6.994;2023-03-31T16:48:22;11.63;;;2.70;;
4323;SDS011;2175;51.018;6.994;2023-03-31T16:50:50;4.77;;;1.60;;
4323;SDS011;2175;51.018;6.994;2023-03-31T16:53:19;4.37;;;1.70;;
4323;SDS011;2175;51.018;6.994;2023-03-31T16:55:46;5.97;;;2.00;;
4323;SDS011;2175;51.018;6.994;2023-03-31T16:58:13;6.23;;;2.33;;
4323;SDS011;2175;51.018;6.994;2023-03-31T17:00:39;4.43;;;1.97;;
4323;SDS011;2175;51.018;6.994;2023-03-31T17:03:06;5.67;;;1.87;;
4323;SDS011;2175;51.018;6.994;2023-03-31T17:05:37;7.47;;;1.93;;
4323;SDS011;2175;51.018;6.994;2023-03-31T17:08:05;5.73;;;2.00;;
4323;SDS011;2175;51.018;6.994;2023-03-31T17:10:33;8.67;;;2.30;;
4323;SDS011;2175;51.018;6.994;2023-03-31T17:13:00;7.70;;;1.90;;
4323;SDS011;2175;51.018;6.994;2023-03-31T17:15:25;5.73;;;1.90;;
4323;SDS011;2175;51.018;6.994;2023-03-31T17:17:53;9.03;;;2.20;;
4323;SDS011;2175;51.018;6.994;2023-03-31T17:20:19;6.53;;;2.10;;
4323;SDS011;2175;51.018;6.994;2023-03-31T17:22:45;8.90;;;2.30;;
4323;SDS011;2175;51.018;6.994;2023-03-31T17:25:12;6.20;;;1.70;;
4323;SDS011;2175;51.018;6.994;2023-03-31T17:27:37;3.37;;;1.67;;
4323;SDS011;2175;51.018;6.994;2023-03-31T17:30:04;6.27;;;2.17;;
4323;SDS011;2175;51.018;6.994;2023-03-31T17:32:30;8.93;;;1.77;;
4323;SDS011;2175;51.018;6.994;2023-03-31T17:34:56;5.33;;;2.50;;
4323;SDS011;2175;51.018;6.994;2023-03-31T17:37:22;4.07;;;1.70;;
4323;SDS011;2175;51.018;6.994;2023-03-31T17:39:48;4.93;;;1.90;;
4323;SDS011;2175;51.018;6.994;2023-03-31T17:42:14;7.97;;;1.87;;
4323;SDS011;2175;51.018;6.994;2023-03-31T17:44:41;7.03;;;1.93;;
4323;SDS011;2175;51.018;6.994;2023-03-31T17:47:06;6.33;;;2.07;;
4323;SDS011;2175;51.018;6.994;2023-03-31T17:49:32;7.77;;;1.93;;
4323;SDS011;2175;51.018;6.994;2023-03-31T17:51:58;5.30;;;1.53;;
4323;SDS011;2175;51.018;6.994;2023-03-31T17:54:24;6.50;;;1.83;;
4323;SDS011;2175;51.018;6.994;2023-03-31T17:56:50;7.13;;;2.20;;
4323;SDS011;2175;51.018;6.994;2023-03-31T17:59:19;9.40;;;1.53;;
4323;SDS011;2175;51.018;6.994;2023-03-31T18:01:46;5.50;;;1.80;;
4323;SDS011;2175;51.018;6.994;2023-03-31T18:04:12;7.10;;;1.90;;
4323;SDS011;2175;51.018;6.994;2023-03-31T18:06:38;5.57;;;1.90;;
4323;SDS011;2175;51.018;6.994;2023-03-31T18:09:05;6.93;;;2.07;;
4323;SDS011;2175;51.018;6.994;2023-03-31T18:11:32;8.37;;;1.80;;
4323;SDS011;2175;51.018;6.994;2023-03-31T18:13:58;8.00;;;2.30;;
4323;SDS011;2175;51.018;6.994;2023-03-31T18:16:27;10.17;;;1.80;;
4323;SDS011;2175;51.018;6.994;2023-03-31T18:18:54;3.80;;;1.67;;
4323;SDS011;2175;51.018;6.994;2023-03-31T18:21:20;7.60;;;2.00;;
4323;SDS011;2175;51.018;6.994;2023-03-31T18:23:48;5.80;;;1.73;;